createdAt,value
2023-01-12T00:01:15.677Z,3.51
2023-01-12T00:04:21.243Z,3.55
2023-01-12T00:07:23.884Z,3.52
2023-01-12T00:10:26.517Z,3.48
2023-01-12T00:13:29.974Z,3.52
2023-01-12T00:16:35.806Z,3.43
2023-01-12T00:19:39.376Z,3.49
2023-01-12T00:22:42.021Z,3.49
2023-01-12T00:25:50.791Z,3.54
2023-01-12T00:28:54.157Z,3.63
2023-01-12T00:31:58.499Z,3.68
2023-01-12T00:35:01.180Z,3.73
2023-01-12T00:38:06.355Z,3.67
2023-01-12T00:41:11.517Z,3.77
2023-01-12T00:44:32.435Z,3.81
2023-01-12T00:47:35.402Z,3.92
2023-01-12T00:50:37.837Z,3.85
2023-01-12T00:53:40.604Z,3.87
2023-01-12T00:56:43.091Z,3.84
2023-01-12T00:59:46.526Z,3.84
2023-01-12T01:02:49.208Z,3.83
2023-01-12T01:05:51.925Z,3.84
2023-01-12T01:08:54.301Z,3.92
2023-01-12T01:11:58.314Z,3.96
2023-01-12T01:15:00.699Z,4.07
2023-01-12T01:18:03.424Z,4.16
2023-01-12T01:21:06.113Z,4.17
2023-01-12T01:24:14.281Z,4.18
2023-01-12T01:27:16.871Z,4.29
2023-01-12T01:30:19.534Z,4.26
2023-01-12T01:33:21.844Z,4.18
2023-01-12T01:36:24.572Z,4.15
2023-01-12T01:39:26.947Z,4.15
2023-01-12T01:42:29.662Z,4.18
2023-01-12T01:45:32.475Z,4.13
2023-01-12T01:48:39.209Z,4.09
2023-01-12T01:51:42.332Z,4.04
2023-01-12T01:54:56.115Z,4.00
2023-01-12T01:58:02.865Z,3.99
2023-01-12T02:01:06.439Z,3.96
2023-01-12T02:04:09.503Z,3.96
2023-01-12T02:07:12.566Z,3.88
2023-01-12T02:10:15.361Z,3.92
2023-01-12T02:13:37.351Z,3.99
2023-01-12T02:17:01.268Z,3.96
2023-01-12T02:20:12.706Z,4.09
2023-01-12T02:23:32.019Z,4.13
2023-01-12T02:26:55.049Z,4.20
2023-01-12T02:30:30.699Z,4.23
2023-01-12T02:33:48.352Z,4.09
2023-01-12T02:37:21.636Z,4.10
2023-01-12T02:40:53.166Z,4.04
2023-01-12T02:43:55.868Z,4.11
2023-01-12T02:47:05.274Z,4.12
2023-01-12T02:50:12.797Z,4.12
2023-01-12T02:53:27.967Z,4.08
2023-01-12T02:56:34.784Z,4.09
2023-01-12T02:59:41.972Z,3.98
2023-01-12T03:02:44.432Z,4.16
2023-01-12T03:05:47.612Z,4.20
2023-01-12T03:08:52.570Z,4.24
2023-01-12T03:12:03.844Z,4.16
2023-01-12T03:15:08.830Z,4.22
2023-01-12T03:18:35.229Z,4.07
2023-01-12T03:21:42.580Z,4.22
2023-01-12T03:24:56.698Z,4.20
2023-01-12T03:28:01.046Z,4.16
2023-01-12T03:31:09.460Z,4.14
2023-01-12T03:34:12.002Z,4.01
2023-01-12T03:37:25.020Z,3.99
2023-01-12T03:40:35.420Z,4.04
2023-01-12T03:44:00.248Z,4.13
2023-01-12T03:47:09.932Z,4.19
2023-01-12T03:50:35.177Z,4.19
2023-01-12T03:53:40.054Z,4.23
2023-01-12T03:56:45.482Z,4.19
2023-01-12T03:59:49.072Z,4.28
2023-01-12T04:03:09.261Z,4.36
2023-01-12T04:06:11.921Z,4.22
2023-01-12T04:09:14.251Z,4.33
2023-01-12T04:12:16.854Z,4.38
2023-01-12T04:15:19.338Z,4.37
2023-01-12T04:18:22.034Z,4.50
2023-01-12T04:21:43.458Z,4.47
2023-01-12T04:24:46.740Z,4.49
2023-01-12T04:27:56.875Z,4.61
2023-01-12T04:30:59.491Z,4.53
2023-01-12T04:34:02.130Z,4.54
2023-01-12T04:37:05.162Z,4.47
2023-01-12T04:40:08.969Z,4.55
2023-01-12T04:43:12.079Z,4.54
2023-01-12T04:46:14.489Z,4.68
2023-01-12T04:49:18.101Z,4.64
2023-01-12T04:52:20.454Z,4.69
2023-01-12T04:55:23.231Z,4.67
2023-01-12T04:58:25.630Z,4.67
2023-01-12T05:01:29.952Z,4.68
2023-01-12T05:04:32.544Z,4.70
2023-01-12T05:07:36.689Z,4.75
2023-01-12T05:10:39.459Z,4.69
2023-01-12T05:13:42.517Z,4.76
2023-01-12T05:16:45.037Z,4.79
2023-01-12T05:19:49.651Z,4.91
2023-01-12T05:22:52.760Z,4.86
2023-01-12T05:25:59.306Z,4.83
2023-01-12T05:29:01.751Z,4.78
2023-01-12T05:32:04.618Z,4.74
2023-01-12T05:35:08.836Z,4.71
2023-01-12T05:38:11.918Z,4.56
2023-01-12T05:41:14.870Z,4.60
2023-01-12T05:44:17.625Z,4.61
2023-01-12T05:47:20.085Z,4.65
2023-01-12T05:50:22.759Z,4.71
2023-01-12T05:53:26.822Z,4.68
2023-01-12T05:56:30.509Z,4.82
2023-01-12T05:59:33.041Z,4.78
2023-01-12T06:02:35.710Z,4.91
2023-01-12T06:05:38.463Z,4.91
2023-01-12T06:08:40.801Z,4.97
2023-01-12T06:12:02.059Z,4.94
2023-01-12T06:15:04.757Z,4.95
2023-01-12T06:18:07.371Z,4.87
2023-01-12T06:21:10.330Z,4.92
2023-01-12T06:24:12.936Z,4.85
2023-01-12T06:27:16.621Z,4.99
2023-01-12T06:30:19.304Z,4.95
2023-01-12T06:33:21.651Z,4.98
2023-01-12T06:36:24.467Z,4.96
2023-01-12T06:39:28.991Z,4.97
2023-01-12T06:42:31.942Z,4.95
2023-01-12T06:45:34.252Z,4.89
2023-01-12T06:48:39.184Z,5.03
2023-01-12T06:51:42.235Z,5.07
2023-01-12T06:54:44.909Z,5.04
2023-01-12T06:57:47.279Z,4.95
2023-01-12T07:00:50.534Z,5.01
2023-01-12T07:03:53.657Z,4.97
2023-01-12T07:06:56.391Z,5.07
2023-01-12T07:09:58.676Z,5.05
2023-01-12T07:13:01.295Z,5.04
2023-01-12T07:16:04.049Z,4.96
2023-01-12T07:19:06.689Z,4.99
2023-01-12T07:22:09.304Z,4.98
2023-01-12T07:25:11.936Z,5.02
2023-01-12T07:28:14.642Z,5.07
2023-01-12T07:31:19.440Z,5.08
2023-01-12T07:34:21.996Z,5.06
2023-01-12T07:37:24.700Z,5.05
2023-01-12T07:40:27.160Z,5.16
2023-01-12T07:43:30.583Z,5.16
2023-01-12T07:46:33.064Z,5.25
2023-01-12T07:49:35.789Z,5.31
2023-01-12T07:52:38.358Z,5.31
2023-01-12T07:55:43.718Z,5.39
2023-01-12T07:58:49.678Z,5.37
2023-01-12T08:01:53.885Z,5.32
2023-01-12T08:04:57.073Z,5.39
2023-01-12T08:08:00.007Z,5.44
2023-01-12T08:11:05.044Z,5.58
2023-01-12T08:14:07.388Z,5.63
2023-01-12T08:17:21.784Z,5.60
2023-01-12T08:20:30.534Z,5.69
2023-01-12T08:23:41.668Z,5.78
2023-01-12T08:26:48.211Z,5.73
2023-01-12T08:29:54.553Z,5.77
2023-01-12T08:33:00.778Z,5.76
2023-01-12T08:36:10.408Z,5.90
2023-01-12T08:39:12.906Z,5.90
2023-01-12T08:42:15.639Z,5.92
2023-01-12T08:45:18.157Z,6.02
2023-01-12T08:48:20.953Z,5.99
2023-01-12T08:51:23.358Z,6.18
2023-01-12T08:54:26.167Z,6.21
2023-01-12T08:57:28.766Z,6.30
2023-01-12T09:00:31.672Z,6.33
2023-01-12T09:03:34.810Z,6.41
2023-01-12T09:06:40.635Z,6.46
2023-01-12T09:09:43.016Z,6.47
2023-01-12T09:12:45.683Z,6.47
2023-01-12T09:16:10.886Z,6.48
2023-01-12T09:19:11.062Z,6.64
2023-01-12T09:22:13.378Z,6.70
2023-01-12T09:25:16.274Z,6.69
2023-01-12T09:28:18.646Z,6.69
2023-01-12T09:31:23.558Z,6.79
2023-01-12T09:34:28.525Z,6.80
2023-01-12T09:37:31.508Z,6.77
2023-01-12T09:40:35.627Z,6.90
2023-01-12T09:43:59.365Z,6.85
2023-01-12T09:47:05.405Z,6.87
2023-01-12T09:50:28.272Z,6.87
2023-01-12T09:53:34.334Z,7.07
2023-01-12T09:57:01.857Z,7.14
2023-01-12T10:00:13.839Z,7.31
2023-01-12T10:03:41.663Z,7.41
2023-01-12T10:06:44.310Z,7.52
2023-01-12T10:09:47.057Z,7.43
2023-01-12T10:12:59.971Z,7.47
2023-01-12T10:16:14.567Z,7.39
2023-01-12T10:19:31.152Z,7.52
2023-01-12T10:23:09.003Z,7.46
2023-01-12T10:26:18.592Z,7.60
2023-01-12T10:29:21.254Z,7.53
2023-01-12T10:32:31.384Z,7.58
2023-01-12T10:35:59.526Z,7.72
2023-01-12T10:39:04.885Z,7.76
2023-01-12T10:42:35.880Z,7.78
2023-01-12T10:45:38.384Z,7.84
2023-01-12T10:48:45.057Z,7.87
2023-01-12T10:52:02.157Z,7.94
2023-01-12T10:55:05.388Z,7.99
2023-01-12T10:58:30.336Z,7.94
2023-01-12T11:02:11.856Z,8.09
2023-01-12T11:05:30.768Z,8.16
2023-01-12T11:08:33.410Z,8.22
2023-01-12T11:11:35.845Z,8.16
2023-01-12T11:14:38.507Z,8.18
2023-01-12T11:18:08.877Z,8.17
2023-01-12T11:21:14.967Z,8.17
2023-01-12T11:24:23.236Z,8.23
2023-01-12T11:27:31.308Z,8.22
2023-01-12T11:30:46.851Z,8.31
2023-01-12T11:34:00.362Z,8.35
2023-01-12T11:37:10.820Z,8.28
2023-01-12T11:40:25.756Z,8.38
2023-01-12T11:43:46.450Z,8.35
2023-01-12T11:46:56.174Z,8.29
2023-01-12T11:50:05.920Z,8.33
2023-01-12T11:53:19.146Z,8.41
2023-01-12T11:56:30.320Z,8.41
2023-01-12T11:59:45.070Z,8.46
2023-01-12T12:02:50.351Z,8.49
2023-01-12T12:06:22.708Z,8.50
2023-01-12T12:09:39.566Z,8.53
2023-01-12T12:12:49.898Z,8.42
2023-01-12T12:16:16.842Z,8.58
2023-01-12T12:19:27.537Z,8.53
2023-01-12T12:22:53.089Z,8.68
2023-01-12T12:26:21.833Z,8.65
2023-01-12T12:29:59.047Z,8.51
2023-01-12T12:33:20.796Z,8.50
2023-01-12T12:37:02.591Z,8.54
2023-01-12T12:40:56.381Z,8.59
2023-01-12T12:44:52.593Z,8.66
2023-01-12T12:48:01.685Z,8.54
2023-01-12T12:51:08.602Z,8.62
2023-01-12T12:54:17.217Z,8.65
2023-01-12T12:57:19.531Z,8.65
2023-01-12T13:00:46.776Z,8.53
2023-01-12T13:03:51.938Z,8.54
2023-01-12T13:06:54.598Z,8.55
2023-01-12T13:10:15.429Z,8.53
2023-01-12T13:13:33.546Z,8.52
2023-01-12T13:16:35.873Z,8.46
2023-01-12T13:19:40.053Z,8.53
2023-01-12T13:22:42.380Z,8.49
2023-01-12T13:25:51.155Z,8.47
2023-01-12T13:29:24.900Z,8.45
2023-01-12T13:32:42.897Z,8.50
2023-01-12T13:35:46.254Z,8.41
2023-01-12T13:38:59.401Z,8.47
2023-01-12T13:42:20.670Z,8.42
2023-01-12T13:45:24.003Z,8.39
2023-01-12T13:48:28.388Z,8.38
2023-01-12T13:51:50.597Z,8.34
2023-01-12T13:54:53.014Z,8.30
2023-01-12T13:57:58.187Z,8.44
2023-01-12T14:01:01.506Z,8.46
2023-01-12T14:04:19.849Z,8.38
2023-01-12T14:07:37.781Z,8.41
2023-01-12T14:10:54.065Z,8.40
2023-01-12T14:14:44.585Z,8.37
2023-01-12T14:17:52.701Z,8.32
2023-01-12T14:20:59.636Z,8.30
2023-01-12T14:24:16.446Z,8.28
2023-01-12T14:27:23.434Z,8.23
2023-01-12T14:30:28.543Z,8.16
2023-01-12T14:33:35.735Z,8.17
2023-01-12T14:36:44.202Z,8.18
2023-01-12T14:39:46.875Z,8.15
2023-01-12T14:43:08.486Z,8.05
2023-01-12T14:46:27.363Z,7.98
2023-01-12T14:49:35.670Z,7.99
2023-01-12T14:52:38.882Z,7.93
2023-01-12T14:55:41.774Z,7.91
2023-01-12T14:58:46.602Z,7.87
2023-01-12T15:01:50.425Z,7.88
2023-01-12T15:05:03.182Z,7.83
2023-01-12T15:08:08.888Z,7.83
2023-01-12T15:11:11.207Z,7.84
2023-01-12T15:14:22.312Z,7.83
2023-01-12T15:17:43.345Z,7.77
2023-01-12T15:21:04.886Z,7.75
2023-01-12T15:24:49.027Z,7.64
2023-01-12T15:27:51.677Z,7.62
2023-01-12T15:30:55.769Z,7.56
2023-01-12T15:33:58.757Z,7.45
2023-01-12T15:37:01.140Z,7.39
2023-01-12T15:40:05.553Z,7.41
2023-01-12T15:43:17.068Z,7.39
2023-01-12T15:46:22.241Z,7.30
2023-01-12T15:49:24.684Z,7.32
2023-01-12T15:52:27.327Z,7.28
2023-01-12T15:55:36.049Z,7.23
2023-01-12T15:58:38.911Z,7.19
2023-01-12T16:01:47.086Z,7.17
2023-01-12T16:04:49.933Z,7.13
2023-01-12T16:07:53.093Z,7.09
2023-01-12T16:11:13.443Z,7.06
2023-01-12T16:14:16.035Z,7.06
2023-01-12T16:17:19.013Z,7.09
2023-01-12T16:20:21.495Z,7.07
2023-01-12T16:23:24.420Z,7.12
2023-01-12T16:26:28.530Z,7.15
2023-01-12T16:29:31.417Z,7.02
2023-01-12T16:32:33.837Z,6.87
2023-01-12T16:35:36.688Z,6.77
2023-01-12T16:38:39.139Z,6.68
2023-01-12T16:41:42.083Z,6.58
2023-01-12T16:44:44.608Z,6.66
2023-01-12T16:47:47.198Z,6.62
2023-01-12T16:50:49.561Z,6.65
2023-01-12T16:53:55.148Z,6.67
2023-01-12T16:56:58.930Z,6.62
2023-01-12T17:00:01.893Z,6.58
2023-01-12T17:03:04.941Z,6.50
2023-01-12T17:06:14.892Z,6.35
2023-01-12T17:09:17.958Z,6.32
2023-01-12T17:12:20.788Z,6.27
2023-01-12T17:15:23.351Z,6.22
2023-01-12T17:18:27.266Z,6.20
2023-01-12T17:21:29.773Z,6.20
2023-01-12T17:24:34.104Z,6.20
2023-01-12T17:27:36.723Z,6.18
2023-01-12T17:30:39.585Z,6.17
2023-01-12T17:33:42.235Z,6.17
2023-01-12T17:36:45.235Z,6.09
2023-01-12T17:39:47.689Z,6.14
2023-01-12T17:43:02.786Z,6.09
2023-01-12T17:46:08.588Z,6.19
2023-01-12T17:49:12.217Z,6.21
2023-01-12T17:52:14.845Z,6.19
2023-01-12T17:55:17.554Z,6.24
2023-01-12T17:58:19.953Z,6.25
2023-01-12T18:01:24.485Z,6.26
2023-01-12T18:04:27.308Z,6.29
2023-01-12T18:07:32.004Z,6.29
2023-01-12T18:10:34.705Z,6.26
2023-01-12T18:13:38.002Z,6.28
2023-01-12T18:16:42.230Z,6.16
2023-01-12T18:19:44.641Z,6.21
2023-01-12T18:22:47.341Z,6.20
2023-01-12T18:25:49.690Z,6.17
2023-01-12T18:28:53.946Z,6.08
2023-01-12T18:31:56.285Z,6.08
2023-01-12T18:34:58.970Z,6.05
2023-01-12T18:38:01.359Z,6.09
2023-01-12T18:41:22.744Z,6.12
2023-01-12T18:44:25.442Z,6.12
2023-01-12T18:47:46.789Z,6.03
2023-01-12T18:51:11.773Z,5.95
2023-01-12T18:54:14.407Z,5.86
2023-01-12T18:57:18.744Z,5.86
2023-01-12T19:00:23.774Z,5.78
2023-01-12T19:03:26.123Z,5.64
2023-01-12T19:06:42.369Z,5.65
2023-01-12T19:09:44.749Z,5.61
2023-01-12T19:12:49.227Z,5.64
2023-01-12T19:16:10.516Z,5.65
2023-01-12T19:19:13.303Z,5.65
2023-01-12T19:22:34.320Z,5.71
2023-01-12T19:25:55.600Z,5.67
2023-01-12T19:28:57.988Z,5.76
2023-01-12T19:32:00.657Z,5.69
2023-01-12T19:35:10.907Z,5.64
2023-01-12T19:38:14.905Z,5.66
2023-01-12T19:41:35.870Z,5.67
2023-01-12T19:44:38.578Z,5.58
2023-01-12T19:47:41.112Z,5.64
2023-01-12T19:50:44.999Z,5.63
2023-01-12T19:53:47.376Z,5.62
2023-01-12T19:56:50.108Z,5.58
2023-01-12T19:59:52.445Z,5.53
2023-01-12T20:02:55.277Z,5.48
2023-01-12T20:05:58.355Z,5.35
2023-01-12T20:09:00.752Z,5.34
2023-01-12T20:12:05.276Z,5.23
2023-01-12T20:15:08.354Z,5.30
2023-01-12T20:18:11.149Z,5.19
2023-01-12T20:21:13.736Z,5.12
2023-01-12T20:24:16.465Z,5.08
2023-01-12T20:27:18.940Z,5.00
2023-01-12T20:30:37.023Z,4.95
2023-01-12T20:33:39.834Z,4.89
2023-01-12T20:36:46.000Z,4.82
2023-01-12T20:39:53.157Z,4.78
2023-01-12T20:42:55.805Z,4.72
2023-01-12T20:45:58.146Z,4.72
2023-01-12T20:49:02.509Z,4.72
2023-01-12T20:52:04.854Z,4.73
2023-01-12T20:55:08.322Z,4.66
2023-01-12T20:58:11.233Z,4.71
2023-01-12T21:01:15.485Z,4.74
2023-01-12T21:04:19.479Z,4.66
2023-01-12T21:07:22.231Z,4.76
2023-01-12T21:10:24.650Z,4.68
2023-01-12T21:13:27.271Z,4.67
2023-01-12T21:16:31.273Z,4.63
2023-01-12T21:19:34.666Z,4.59
2023-01-12T21:22:37.132Z,4.62
2023-01-12T21:25:43.846Z,4.65
2023-01-12T21:28:46.373Z,4.63
2023-01-12T21:31:49.293Z,4.59
2023-01-12T21:34:51.728Z,4.53
2023-01-12T21:37:54.483Z,4.56
2023-01-12T21:41:01.787Z,4.52
2023-01-12T21:44:04.430Z,4.46
2023-01-12T21:47:06.934Z,4.39
2023-01-12T21:50:10.336Z,4.46
2023-01-12T21:53:18.608Z,4.48
2023-01-12T21:56:21.237Z,4.39
2023-01-12T21:59:23.641Z,4.38
2023-01-12T22:02:26.292Z,4.39
2023-01-12T22:05:29.302Z,4.40
2023-01-12T22:08:33.881Z,4.46
2023-01-12T22:11:38.657Z,4.44
2023-01-12T22:14:40.974Z,4.49
2023-01-12T22:17:44.130Z,4.40
2023-01-12T22:20:46.652Z,4.43
2023-01-12T22:23:49.704Z,4.42
2023-01-12T22:26:52.317Z,4.57
2023-01-12T22:29:55.569Z,4.64
2023-01-12T22:32:57.984Z,4.60
2023-01-12T22:36:05.272Z,4.70
2023-01-12T22:39:07.647Z,4.69
2023-01-12T22:42:10.289Z,4.62
2023-01-12T22:45:13.605Z,4.54
2023-01-12T22:48:16.727Z,4.64
2023-01-12T22:51:21.190Z,4.58
2023-01-12T22:54:23.798Z,4.53
2023-01-12T22:57:26.124Z,4.46
2023-01-12T23:00:28.752Z,4.46
2023-01-12T23:03:31.605Z,4.53
2023-01-12T23:06:37.299Z,4.55
2023-01-12T23:09:39.719Z,4.62
2023-01-12T23:13:02.646Z,4.55
2023-01-12T23:16:07.121Z,4.57
2023-01-12T23:19:10.542Z,4.61
2023-01-12T23:22:12.874Z,4.47
2023-01-12T23:25:15.532Z,4.31
2023-01-12T23:28:17.883Z,4.39
2023-01-12T23:31:22.422Z,4.41
2023-01-12T23:34:24.755Z,4.30
2023-01-12T23:37:27.349Z,4.36
2023-01-12T23:40:29.789Z,4.29
2023-01-12T23:43:33.911Z,4.26
2023-01-12T23:46:39.003Z,4.19
2023-01-12T23:49:42.955Z,4.27
2023-01-12T23:52:48.841Z,4.23
2023-01-12T23:55:52.431Z,4.06
2023-01-12T23:58:55.078Z,3.94
